Time;durP1;ratioP1;P1;durP2;ratioP2;P2;SDS_P1;SDS_P2;PMS_P1;PMS_P2;Temp;Humidity;BMP_temperature;BMP_pressure;BME280_temperature;BME280_humidity;BME280_pressure;Samples;Min_cycle;Max_cycle;Signal;HPM_P1;HPM_P2
2022/08/18 00:02:00;;;;;;;7.87;7.07;;;18.80;99.90;;;;;;5027445;28;20194;-79
2022/08/18 00:04:27;;;;;;;11.23;10.23;;;18.80;99.90;;;;;;5024345;28;20194;-79
2022/08/18 00:06:54;;;;;;;10.93;10.03;;;18.80;99.90;;;;;;5030264;28;20292;-79
2022/08/18 00:09:21;;;;;;;10.50;9.60;;;18.80;99.90;;;;;;5027914;28;20237;-79
2022/08/18 00:11:48;;;;;;;12.60;11.53;;;18.80;99.90;;;;;;5027782;28;20204;-79
2022/08/18 00:14:17;;;;;;;11.80;10.90;;;18.80;99.90;;;;;;5030291;28;20214;-78
2022/08/18 00:16:44;;;;;;;7.73;6.93;;;18.80;99.90;;;;;;5025991;28;20252;-79
2022/08/18 00:19:12;;;;;;;7.87;7.17;;;18.80;99.90;;;;;;5026387;28;20283;-78
2022/08/18 00:21:40;;;;;;;7.87;7.07;;;18.80;99.90;;;;;;5026696;28;20692;-78
2022/08/18 00:24:06;;;;;;;8.10;7.30;;;18.90;99.90;;;;;;5031713;28;20198;-79
2022/08/18 00:26:33;;;;;;;8.70;7.47;;;18.80;99.90;;;;;;5028744;28;20209;-79
2022/08/18 00:29:00;;;;;;;7.97;6.97;;;18.80;99.90;;;;;;5025808;28;20221;-79
2022/08/18 00:31:28;;;;;;;7.97;7.17;;;18.80;99.90;;;;;;5025690;28;20237;-78
2022/08/18 00:33:55;;;;;;;8.90;7.80;;;18.70;99.90;;;;;;5026955;28;20228;-78
2022/08/18 00:36:23;;;;;;;11.83;10.70;;;18.70;99.90;;;;;;5029419;28;20267;-78
2022/08/18 00:38:50;;;;;;;8.77;7.87;;;18.70;99.90;;;;;;5030485;28;20681;-79
2022/08/18 00:41:17;;;;;;;9.10;7.60;;;18.70;99.90;;;;;;5029368;28;20201;-79
2022/08/18 00:43:47;;;;;;;9.43;7.83;;;18.70;99.90;;;;;;5032571;28;20205;-78
2022/08/18 00:46:18;;;;;;;8.40;7.60;;;18.60;99.90;;;;;;5027210;28;20201;-78
2022/08/18 00:48:45;;;;;;;8.60;7.70;;;18.60;99.90;;;;;;5026751;28;20306;-78
2022/08/18 00:51:18;;;;;;;8.37;7.57;;;18.70;99.90;;;;;;5025207;28;20209;-79
2022/08/18 00:53:50;;;;;;;10.03;8.83;;;18.70;99.90;;;;;;5025363;28;20201;-79
2022/08/18 00:56:23;;;;;;;9.13;8.20;;;18.70;99.90;;;;;;5023453;28;20192;-78
2022/08/18 00:58:53;;;;;;;10.07;7.67;;;18.70;99.90;;;;;;5026494;28;20215;-79
2022/08/18 01:01:23;;;;;;;8.47;7.57;;;18.70;99.90;;;;;;5028563;28;20204;-79
2022/08/18 01:03:52;;;;;;;12.17;11.13;;;18.60;99.90;;;;;;5030374;28;20296;-79
2022/08/18 01:06:26;;;;;;;12.13;11.13;;;18.60;99.90;;;;;;5031678;28;20243;-79
2022/08/18 01:08:54;;;;;;;12.90;11.80;;;18.60;99.90;;;;;;5028233;28;20250;-79
2022/08/18 01:11:21;;;;;;;10.70;9.70;;;18.60;99.90;;;;;;5030919;28;20201;-78
2022/08/18 01:13:48;;;;;;;12.50;11.20;;;18.60;99.90;;;;;;5025869;28;20252;-79
2022/08/18 01:21:50;;;;;;;12.20;11.00;;;18.60;99.90;;;;;;5029690;28;20204;-79
2022/08/18 01:25:58;;;;;;;12.43;11.30;;;18.50;99.90;;;;;;5027183;28;20193;-79
2022/08/18 01:27:07;;;;;;;11.33;10.33;;;18.50;99.90;;;;;;5025819;28;20758;-79
2022/08/18 01:29:35;;;;;;;12.00;10.30;;;18.50;99.90;;;;;;5024675;28;20235;-79
2022/08/18 01:32:03;;;;;;;13.07;12.07;;;18.40;99.90;;;;;;5030989;28;20201;-79
2022/08/18 01:34:29;;;;;;;12.83;11.73;;;18.40;99.90;;;;;;5024046;28;20740;-78
2022/08/18 01:36:57;;;;;;;12.77;11.77;;;18.30;99.90;;;;;;5026101;28;20194;-79
2022/08/18 01:39:25;;;;;;;11.00;10.10;;;18.40;99.90;;;;;;5028348;28;20225;-79
2022/08/18 01:41:52;;;;;;;12.57;11.60;;;18.40;99.90;;;;;;5030967;28;20254;-79
2022/08/18 01:44:19;;;;;;;11.53;10.63;;;18.40;99.90;;;;;;5025600;28;20552;-79
2022/08/18 01:46:45;;;;;;;13.50;12.40;;;18.30;99.90;;;;;;5027495;28;20300;-79
2022/08/18 01:49:13;;;;;;;12.97;11.97;;;18.30;99.90;;;;;;5024404;28;20313;-79
2022/08/18 01:51:41;;;;;;;12.93;11.93;;;18.40;99.90;;;;;;5024588;28;20204;-78
2022/08/18 01:54:11;;;;;;;12.83;11.93;;;18.40;99.90;;;;;;5024812;28;20196;-79
2022/08/18 01:56:41;;;;;;;13.17;12.17;;;18.40;99.90;;;;;;5026717;28;20194;-78
2022/08/18 01:59:13;;;;;;;13.17;11.97;;;18.40;99.90;;;;;;5032696;28;20282;-78
2022/08/18 02:01:41;;;;;;;10.97;10.07;;;18.40;99.90;;;;;;5023270;28;20286;-79
2022/08/18 02:04:11;;;;;;;11.60;10.57;;;18.40;99.90;;;;;;5023854;28;20283;-78
2022/08/18 02:06:39;;;;;;;11.70;10.67;;;18.50;99.90;;;;;;5024915;28;20205;-78
2022/08/18 02:09:06;;;;;;;10.17;9.27;;;18.40;99.90;;;;;;5028936;28;20230;-78
2022/08/18 02:11:33;;;;;;;11.17;10.17;;;18.50;99.90;;;;;;5027510;28;20204;-79
2022/08/18 02:14:01;;;;;;;11.00;9.93;;;18.50;99.90;;;;;;5023916;28;20205;-78
2022/08/18 02:16:28;;;;;;;10.07;9.17;;;18.50;99.90;;;;;;5029701;28;20200;-78
2022/08/18 02:18:55;;;;;;;10.83;9.93;;;18.50;99.90;;;;;;5025198;28;20780;-78
2022/08/18 02:21:22;;;;;;;10.33;9.43;;;18.50;99.90;;;;;;5027731;28;20200;-81
2022/08/18 02:23:49;;;;;;;10.90;10.00;;;18.50;99.90;;;;;;5032366;28;20199;-79
2022/08/18 02:26:18;;;;;;;11.13;10.13;;;18.40;99.90;;;;;;5033802;28;20201;-79
2022/08/18 02:28:45;;;;;;;9.80;9.00;;;18.40;99.90;;;;;;5024409;28;20217;-80
2022/08/18 02:31:17;;;;;;;10.30;9.30;;;18.40;99.90;;;;;;5023232;28;20201;-81
2022/08/18 02:33:44;;;;;;;10.00;9.20;;;18.40;99.90;;;;;;5024675;28;20262;-80
2022/08/18 02:36:12;;;;;;;9.03;8.27;;;18.40;99.90;;;;;;5028049;28;20196;-79
2022/08/18 02:38:39;;;;;;;11.67;10.77;;;18.40;99.90;;;;;;5034246;28;20671;-80
2022/08/18 02:41:08;;;;;;;12.17;11.17;;;18.30;99.90;;;;;;5034790;28;20195;-77
2022/08/18 02:43:36;;;;;;;15.73;14.33;;;18.40;99.90;;;;;;5034740;28;20572;-79
2022/08/18 02:46:04;;;;;;;13.20;12.30;;;18.40;99.90;;;;;;5032906;28;20250;-80
2022/08/18 02:48:33;;;;;;;12.20;11.30;;;18.40;99.90;;;;;;5035568;28;20307;-81
2022/08/18 02:51:03;;;;;;;12.23;11.30;;;18.40;99.90;;;;;;5035269;28;20288;-79
2022/08/18 02:53:30;;;;;;;12.33;11.43;;;18.40;99.90;;;;;;5028341;28;20196;-79
2022/08/18 02:56:07;;;;;;;12.63;11.53;;;18.30;99.90;;;;;;5035040;28;20697;-77
2022/08/18 02:58:35;;;;;;;11.50;10.40;;;18.30;99.90;;;;;;5035368;28;20195;-79
2022/08/18 03:01:01;;;;;;;11.37;10.23;;;18.30;99.90;;;;;;5026073;28;20192;-79
2022/08/18 03:03:31;;;;;;;12.47;11.47;;;18.30;99.90;;;;;;5029041;28;20196;-79
2022/08/18 03:05:59;;;;;;;12.67;11.57;;;18.30;99.90;;;;;;5027837;28;20204;-79
2022/08/18 03:08:26;;;;;;;11.43;10.53;;;18.20;99.90;;;;;;5030365;28;20301;-79
2022/08/18 03:10:53;;;;;;;10.87;9.97;;;18.20;99.90;;;;;;5032928;28;20581;-79
2022/08/18 03:13:20;;;;;;;8.73;7.93;;;18.20;99.90;;;;;;5028936;28;20669;-80
2022/08/18 03:15:47;;;;;;;8.50;7.70;;;18.10;99.90;;;;;;5028329;28;20673;-79
2022/08/18 03:18:14;;;;;;;8.07;7.37;;;18.10;99.90;;;;;;5032940;28;20249;-79
2022/08/18 03:20:42;;;;;;;8.43;7.63;;;18.10;99.90;;;;;;5027158;28;20648;-79
2022/08/18 03:23:11;;;;;;;8.13;7.43;;;18.00;99.90;;;;;;5026144;28;20220;-78
2022/08/18 03:25:45;;;;;;;12.20;11.20;;;18.00;99.90;;;;;;5027963;28;20589;-79
2022/08/18 03:28:12;;;;;;;12.43;11.33;;;18.00;99.90;;;;;;5029853;28;20217;-79
2022/08/18 03:30:39;;;;;;;8.57;7.77;;;18.00;99.90;;;;;;5032576;28;20278;-79
2022/08/18 03:33:06;;;;;;;10.00;9.10;;;17.90;99.90;;;;;;5026997;28;20715;-79
2022/08/18 03:35:35;;;;;;;11.97;10.97;;;17.90;99.90;;;;;;5026851;28;20207;-79
2022/08/18 03:38:03;;;;;;;11.83;10.93;;;17.80;99.90;;;;;;5026691;28;20634;-79
2022/08/18 03:40:31;;;;;;;7.60;6.80;;;17.80;99.90;;;;;;5032963;28;20577;-79
2022/08/18 03:42:58;;;;;;;8.23;7.30;;;17.70;99.90;;;;;;5026255;28;20208;-79
2022/08/18 03:45:27;;;;;;;7.07;6.37;;;17.70;99.90;;;;;;5029302;28;20212;-79
2022/08/18 03:47:54;;;;;;;8.33;7.53;;;17.70;99.90;;;;;;5032805;28;20200;-79
2022/08/18 03:50:24;;;;;;;8.37;7.63;;;17.70;99.90;;;;;;5028240;28;20249;-79
2022/08/18 03:52:51;;;;;;;6.73;6.13;;;17.70;99.90;;;;;;5028356;28;20619;-79
2022/08/18 03:55:18;;;;;;;7.97;7.27;;;17.70;99.90;;;;;;5027938;28;20195;-79
2022/08/18 03:57:46;;;;;;;8.80;7.40;;;17.70;99.90;;;;;;5032554;28;20254;-78
2022/08/18 04:00:14;;;;;;;7.53;6.73;;;17.70;99.90;;;;;;5028145;28;20635;-79
2022/08/18 04:02:40;;;;;;;13.40;12.30;;;17.60;99.90;;;;;;5027311;28;20277;-79
2022/08/18 04:05:10;;;;;;;12.43;11.43;;;17.60;99.90;;;;;;5031724;28;20456;-79
2022/08/18 04:07:36;;;;;;;11.73;10.77;;;17.50;99.90;;;;;;5030265;28;20598;-79
2022/08/18 04:10:04;;;;;;;12.27;11.37;;;17.60;99.90;;;;;;5027279;28;20657;-79
2022/08/18 04:12:31;;;;;;;11.53;10.63;;;17.60;99.90;;;;;;5027521;28;20715;-79
2022/08/18 04:14:59;;;;;;;11.87;10.83;;;17.60;99.90;;;;;;5030928;28;20199;-79
2022/08/18 04:17:26;;;;;;;12.00;11.10;;;17.60;99.90;;;;;;5027411;28;20196;-79
2022/08/18 04:19:54;;;;;;;11.30;10.50;;;17.60;99.90;;;;;;5027683;28;20221;-79
2022/08/18 04:22:21;;;;;;;12.50;11.50;;;17.60;99.90;;;;;;5030680;28;20263;-79
2022/08/18 04:24:49;;;;;;;11.87;10.90;;;17.60;99.90;;;;;;5031847;28;20246;-79
2022/08/18 04:27:16;;;;;;;9.97;9.17;;;17.60;99.90;;;;;;5028019;28;20198;-79
2022/08/18 04:29:43;;;;;;;10.70;9.90;;;17.60;99.90;;;;;;5027045;28;20227;-79
2022/08/18 04:32:11;;;;;;;10.63;9.80;;;17.60;99.90;;;;;;5025867;28;20253;-79
2022/08/18 04:34:38;;;;;;;11.00;10.00;;;17.60;99.90;;;;;;5027257;28;20256;-79
2022/08/18 04:37:07;;;;;;;10.17;9.37;;;17.60;99.90;;;;;;5025658;28;20203;-80
2022/08/18 04:39:34;;;;;;;11.03;10.13;;;17.70;99.90;;;;;;5032872;28;20713;-79
2022/08/18 04:42:03;;;;;;;9.33;8.53;;;17.70;99.90;;;;;;5035652;28;20276;-80
2022/08/18 04:44:30;;;;;;;10.70;9.80;;;17.80;99.90;;;;;;5032496;28;20684;-79
2022/08/18 04:46:57;;;;;;;11.40;10.40;;;17.80;99.90;;;;;;5025528;28;20200;-79
2022/08/18 04:49:26;;;;;;;11.20;10.30;;;17.90;99.90;;;;;;5031487;28;20754;-80
2022/08/18 04:54:40;;;;;;;11.20;10.33;;;18.10;99.90;;;;;;5031599;28;20679;-80
2022/08/18 04:57:09;;;;;;;11.40;10.60;;;18.20;99.90;;;;;;5035829;28;20222;-79
2022/08/18 04:59:36;;;;;;;11.27;10.27;;;18.40;99.90;;;;;;5030816;28;20219;-79
2022/08/18 05:02:06;;;;;;;11.83;10.93;;;18.40;99.90;;;;;;5034263;28;20245;-79
2022/08/18 05:04:35;;;;;;;13.57;12.57;;;18.50;99.90;;;;;;5031303;28;20283;-79
2022/08/18 05:07:02;;;;;;;14.20;13.10;;;18.60;99.90;;;;;;5033917;28;20197;-81
2022/08/18 05:09:29;;;;;;;12.07;11.17;;;18.70;99.90;;;;;;5041776;28;20228;-78
2022/08/18 05:11:56;;;;;;;12.60;11.70;;;18.70;99.90;;;;;;5035016;28;20210;-80
2022/08/18 05:14:23;;;;;;;12.23;11.43;;;18.80;99.90;;;;;;5033176;28;20231;-80
2022/08/18 05:16:50;;;;;;;12.10;11.30;;;18.90;99.90;;;;;;5030219;28;20201;-81
2022/08/18 05:19:21;;;;;;;7.03;6.43;;;18.90;99.90;;;;;;5031321;28;20689;-80
2022/08/18 05:21:50;;;;;;;7.10;6.40;;;18.90;99.90;;;;;;5032614;28;20200;-80
2022/08/18 05:24:17;;;;;;;6.73;6.03;;;18.90;99.90;;;;;;5030980;28;20267;-79
2022/08/18 05:26:44;;;;;;;7.67;6.97;;;18.90;99.90;;;;;;5034394;28;20199;-79
2022/08/18 05:29:11;;;;;;;7.53;6.70;;;19.00;99.90;;;;;;5033168;28;20264;-80
2022/08/18 05:31:38;;;;;;;8.07;6.57;;;19.00;99.90;;;;;;5032856;28;20694;-79
2022/08/18 05:34:05;;;;;;;12.63;11.73;;;19.10;99.90;;;;;;5024911;28;20459;-75
2022/08/18 05:36:50;;;;;;;10.03;9.23;;;19.20;99.90;;;;;;5034232;28;20685;-79
2022/08/18 05:39:25;;;;;;;6.47;5.87;;;19.10;99.90;;;;;;5033495;28;20221;-79
2022/08/18 05:42:03;;;;;;;6.53;5.90;;;19.10;99.90;;;;;;5027081;28;20265;-79
2022/08/18 05:44:32;;;;;;;7.50;6.80;;;19.10;99.90;;;;;;5028545;28;20213;-79
2022/08/18 05:47:05;;;;;;;6.97;6.27;;;19.10;99.90;;;;;;5026065;28;20229;-79
2022/08/18 05:49:34;;;;;;;9.20;8.50;;;19.20;99.90;;;;;;5025574;28;20783;-81
2022/08/18 05:52:04;;;;;;;8.20;7.50;;;19.20;99.90;;;;;;5026426;28;20223;-79
2022/08/18 05:57:30;;;;;;;7.43;6.73;;;19.30;99.90;;;;;;5022542;28;20212;-78
2022/08/18 05:59:58;;;;;;;6.40;5.77;;;19.30;99.90;;;;;;5024455;28;20222;-80
2022/08/18 06:02:32;;;;;;;5.63;5.13;;;19.30;99.90;;;;;;5027458;28;20257;-79
2022/08/18 06:05:03;;;;;;;6.63;6.03;;;19.30;99.90;;;;;;5031951;28;20198;-78
2022/08/18 06:07:36;;;;;;;8.00;7.30;;;19.30;99.90;;;;;;5027852;28;20222;-78
2022/08/18 06:10:06;;;;;;;11.07;10.30;;;19.30;99.90;;;;;;5025757;28;20229;-79
2022/08/18 06:12:36;;;;;;;11.20;10.30;;;19.30;99.90;;;;;;5027971;28;20218;-78
2022/08/18 06:15:08;;;;;;;10.90;10.00;;;19.40;99.90;;;;;;5033050;28;20198;-80
2022/08/18 06:18:10;;;;;;;5.83;5.30;;;19.40;99.90;;;;;;5035187;28;20543;-80
2022/08/18 06:20:54;;;;;;;6.03;5.43;;;19.70;99.90;;;;;;4970020;28;20227;-79
2022/08/18 06:23:28;;;;;;;7.83;7.20;;;19.90;99.90;;;;;;5025415;28;20210;-80
2022/08/18 06:26:09;;;;;;;11.70;10.90;;;20.10;99.90;;;;;;5032446;28;20262;-79
2022/08/18 06:28:50;;;;;;;5.83;5.33;;;20.20;99.90;;;;;;5032455;28;20207;-79
2022/08/18 06:31:23;;;;;;;6.10;5.50;;;20.40;99.90;;;;;;5033776;28;20203;-79
2022/08/18 06:34:00;;;;;;;6.10;5.50;;;20.50;99.90;;;;;;5025053;28;20227;-78
2022/08/18 06:36:37;;;;;;;10.87;10.07;;;20.50;99.90;;;;;;5032963;28;20199;-80
2022/08/18 06:39:15;;;;;;;6.20;5.60;;;20.40;99.90;;;;;;5034231;28;20301;-79
2022/08/18 06:41:47;;;;;;;6.20;5.47;;;20.50;99.90;;;;;;5026333;28;20262;-80
2022/08/18 06:44:23;;;;;;;7.00;6.30;;;20.40;99.90;;;;;;5041889;28;20699;-80
2022/08/18 06:46:56;;;;;;;7.20;5.40;;;20.40;99.90;;;;;;5030503;28;20615;-80
2022/08/18 06:49:35;;;;;;;6.10;5.40;;;20.40;99.90;;;;;;5032966;28;20227;-79
2022/08/18 06:52:21;;;;;;;5.90;5.30;;;20.50;99.90;;;;;;5028827;28;20195;-79
2022/08/18 06:54:47;;;;;;;6.30;5.67;;;20.60;99.90;;;;;;5026174;28;20196;-80
2022/08/18 06:57:29;;;;;;;6.90;6.27;;;20.60;99.90;;;;;;5026715;28;20291;-79
2022/08/18 06:59:58;;;;;;;5.67;5.13;;;20.60;99.90;;;;;;5027652;28;20216;-79
2022/08/18 07:02:40;;;;;;;7.00;6.40;;;20.60;99.90;;;;;;5032948;28;20214;-79
2022/08/18 07:05:18;;;;;;;10.43;9.63;;;20.70;99.90;;;;;;5025961;28;20204;-79
2022/08/18 07:07:45;;;;;;;11.00;10.20;;;20.80;99.90;;;;;;5024303;28;20687;-79
2022/08/18 07:10:29;;;;;;;5.80;5.23;;;20.90;99.90;;;;;;5023521;28;20226;-80
2022/08/18 07:13:24;;;;;;;6.40;5.80;;;21.00;99.90;;;;;;5023980;28;20188;-80
2022/08/18 07:15:51;;;;;;;6.37;5.77;;;21.00;99.90;;;;;;5022766;28;20203;-79
2022/08/18 07:18:27;;;;;;;6.30;5.70;;;20.90;99.90;;;;;;5028941;28;20208;-79
2022/08/18 07:20:56;;;;;;;6.87;6.23;;;20.80;99.90;;;;;;5031587;28;20314;-80
2022/08/18 07:23:27;;;;;;;6.80;6.10;;;20.60;99.90;;;;;;5028295;28;20228;-79
2022/08/18 07:26:01;;;;;;;8.27;6.80;;;20.40;99.90;;;;;;5033620;28;20690;-80
2022/08/18 07:28:32;;;;;;;9.60;6.60;;;20.30;99.90;;;;;;5030020;28;20203;-79
2022/08/18 07:31:35;;;;;;;7.53;6.33;;;20.20;99.90;;;;;;5028085;28;20262;-79
2022/08/18 07:34:07;;;;;;;12.33;11.33;;;20.00;99.90;;;;;;5018267;28;20273;-79
2022/08/18 07:36:40;;;;;;;11.43;10.50;;;20.00;99.90;;;;;;5028356;28;20203;-80
2022/08/18 07:39:13;;;;;;;6.63;6.03;;;19.90;99.90;;;;;;5030386;28;20226;-79
2022/08/18 07:41:48;;;;;;;6.60;6.00;;;19.90;99.90;;;;;;5026892;28;20210;-79
2022/08/18 07:44:24;;;;;;;7.20;6.50;;;19.90;99.90;;;;;;5023669;28;20676;-79
2022/08/18 07:46:58;;;;;;;6.80;6.20;;;19.90;99.90;;;;;;5028597;28;20196;-80
2022/08/18 07:49:29;;;;;;;6.53;5.93;;;19.90;99.90;;;;;;5031055;28;20231;-79
2022/08/18 07:52:06;;;;;;;6.73;6.07;;;19.90;99.90;;;;;;5031757;28;20254;-79
2022/08/18 07:54:45;;;;;;;6.30;5.70;;;19.90;99.90;;;;;;5031441;28;20195;-79
2022/08/18 07:57:20;;;;;;;9.40;8.63;;;19.90;99.90;;;;;;5028704;28;20257;-80
2022/08/18 07:59:57;;;;;;;9.93;9.13;;;19.90;99.90;;;;;;5031398;28;20278;-79
2022/08/18 08:02:35;;;;;;;9.53;8.73;;;19.80;99.90;;;;;;5028888;28;20207;-79
2022/08/18 08:05:09;;;;;;;11.00;10.10;;;19.80;99.90;;;;;;5027974;28;20257;-79
2022/08/18 08:07:47;;;;;;;6.13;5.63;;;20.00;99.90;;;;;;5028344;28;20538;-78
2022/08/18 08:10:28;;;;;;;7.20;6.50;;;20.00;99.90;;;;;;5043696;28;20224;-79
2022/08/18 08:13:03;;;;;;;9.27;8.47;;;19.90;99.90;;;;;;5034475;28;20199;-79
2022/08/18 08:15:43;;;;;;;8.20;7.40;;;20.00;99.90;;;;;;5031812;28;20199;-80
2022/08/18 08:18:15;;;;;;;7.83;7.13;;;20.10;99.90;;;;;;5023290;28;20200;-79
2022/08/18 08:20:48;;;;;;;7.20;6.50;;;20.20;99.90;;;;;;5026541;28;20217;-79
2022/08/18 08:23:24;;;;;;;10.47;9.57;;;20.40;99.90;;;;;;5028298;28;20209;-79
2022/08/18 08:26:02;;;;;;;8.93;8.13;;;20.70;99.90;;;;;;5032263;28;20286;-79
2022/08/18 08:28:39;;;;;;;7.00;6.30;;;20.90;99.90;;;;;;5022656;28;20669;-80
2022/08/18 08:31:11;;;;;;;7.80;7.00;;;21.10;99.90;;;;;;5033510;28;20277;-79
2022/08/18 08:33:44;;;;;;;8.03;7.40;;;21.20;99.90;;;;;;5032399;28;20258;-80
2022/08/18 08:36:18;;;;;;;8.17;7.47;;;21.50;99.90;;;;;;5026621;28;20665;-79
2022/08/18 08:38:47;;;;;;;10.17;9.37;;;21.70;99.90;;;;;;5027408;28;20199;-80
2022/08/18 08:41:24;;;;;;;9.53;8.70;;;21.90;99.90;;;;;;5027158;28;20253;-80
2022/08/18 08:44:00;;;;;;;11.07;10.23;;;22.00;99.90;;;;;;5030407;28;20199;-80
2022/08/18 08:46:31;;;;;;;8.70;7.90;;;22.10;99.90;;;;;;5025799;28;20203;-79
2022/08/18 08:49:07;;;;;;;8.70;7.90;;;22.30;99.90;;;;;;5027036;28;20780;-80
2022/08/18 08:51:39;;;;;;;8.80;8.00;;;22.40;99.90;;;;;;5024093;28;20262;-80
2022/08/18 08:54:11;;;;;;;9.23;8.33;;;22.50;99.90;;;;;;5031625;28;20192;-79
2022/08/18 08:56:44;;;;;;;10.07;9.37;;;22.80;99.90;;;;;;5029847;28;20207;-79
2022/08/18 08:59:13;;;;;;;8.07;7.27;;;22.80;99.90;;;;;;5027482;28;20282;-80
2022/08/18 09:01:47;;;;;;;8.67;7.97;;;23.30;99.90;;;;;;5025716;28;20211;-79
2022/08/18 09:04:31;;;;;;;6.57;5.90;;;23.60;99.90;;;;;;5030573;28;20247;-79
2022/08/18 09:07:13;;;;;;;5.37;4.83;;;23.70;99.90;;;;;;5034423;28;20230;-80
2022/08/18 09:10:00;;;;;;;5.70;5.20;;;23.70;99.90;;;;;;5031365;28;20223;-80
2022/08/18 09:12:42;;;;;;;7.90;7.20;;;23.70;99.90;;;;;;5033397;28;20204;-80
2022/08/18 09:15:34;;;;;;;5.90;5.27;;;23.80;99.90;;;;;;5033201;28;20208;-80
2022/08/18 09:18:28;;;;;;;8.10;7.50;;;24.00;99.90;;;;;;5025007;28;20196;-80
2022/08/18 09:21:05;;;;;;;10.60;9.80;;;24.40;99.90;;;;;;5026586;28;20216;-79
2022/08/18 09:23:35;;;;;;;5.40;4.90;;;24.50;99.90;;;;;;5024986;28;20664;-79
2022/08/18 09:26:25;;;;;;;9.07;8.37;;;24.70;99.90;;;;;;5025060;28;20205;-80
2022/08/18 09:28:59;;;;;;;9.40;8.70;;;24.90;99.90;;;;;;5026318;28;20234;-79
2022/08/18 09:31:27;;;;;;;5.33;4.80;;;25.20;99.90;;;;;;5030450;28;20212;-80
2022/08/18 09:34:17;;;;;;;9.80;9.10;;;25.50;99.90;;;;;;5024552;28;20200;-80
2022/08/18 09:36:58;;;;;;;9.37;8.67;;;26.10;99.90;;;;;;5021596;28;20736;-79
2022/08/18 09:42:29;;;;;;;9.63;8.93;;;26.50;99.90;;;;;;5022903;28;20207;-79
2022/08/18 09:45:00;;;;;;;9.10;8.40;;;27.00;99.90;;;;;;5031262;28;20253;-80
2022/08/18 09:48:00;;;;;;;9.43;8.73;;;27.30;99.90;;;;;;5026401;28;20200;-80
2022/08/18 09:50:50;;;;;;;9.33;8.63;;;27.40;99.90;;;;;;5026583;28;20223;-80
2022/08/18 09:53:44;;;;;;;10.90;10.10;;;27.60;99.90;;;;;;5027654;28;20196;-80
2022/08/18 09:56:12;;;;;;;10.27;9.40;;;27.20;99.90;;;;;;5030883;28;20253;-79
2022/08/18 09:59:01;;;;;;;10.23;9.53;;;27.00;99.90;;;;;;5031900;28;20231;-79
2022/08/18 10:01:40;;;;;;;10.50;9.70;;;27.00;99.90;;;;;;5021824;28;20215;-79
2022/08/18 10:04:26;;;;;;;10.47;9.67;;;26.90;99.90;;;;;;5026035;28;20582;-80
2022/08/18 10:07:13;;;;;;;8.63;7.83;;;27.00;99.90;;;;;;5030981;28;20532;-79
2022/08/18 10:09:50;;;;;;;9.60;8.70;;;26.90;99.90;;;;;;5029733;28;20224;-80
2022/08/18 10:12:47;;;;;;;10.30;9.50;;;26.70;99.90;;;;;;5027095;28;20250;-80
2022/08/18 10:15:36;;;;;;;10.33;9.43;;;26.40;99.90;;;;;;5026295;28;20208;-80
2022/08/18 10:18:32;;;;;;;9.50;8.77;;;26.00;99.90;;;;;;5026198;28;20200;-79
2022/08/18 10:21:08;;;;;;;10.40;9.53;;;26.00;99.90;;;;;;5028815;28;20632;-79
2022/08/18 10:23:50;;;;;;;9.63;8.90;;;25.70;99.90;;;;;;5027665;28;20266;-79
2022/08/18 10:27:07;;;;;;;9.60;8.87;;;25.80;99.90;;;;;;5021249;28;20200;-80
2022/08/18 10:29:49;;;;;;;10.50;9.20;;;26.00;99.90;;;;;;5028845;28;20226;-79
2022/08/18 10:32:40;;;;;;;10.17;8.93;;;26.10;99.90;;;;;;5027168;28;20195;-79
2022/08/18 10:35:52;;;;;;;9.63;8.83;;;26.20;99.90;;;;;;5026282;28;20200;-80
2022/08/18 10:38:35;;;;;;;8.83;8.00;;;26.20;99.90;;;;;;5026096;28;20295;-79
2022/08/18 10:41:07;;;;;;;6.17;5.53;;;26.40;99.90;;;;;;5030685;28;20196;-80
2022/08/18 10:43:41;;;;;;;7.10;6.03;;;26.30;99.90;;;;;;5027678;28;20200;-79
2022/08/18 10:46:17;;;;;;;7.60;6.80;;;26.20;99.90;;;;;;5025266;28;20440;-79
2022/08/18 10:48:44;;;;;;;5.73;5.23;;;26.00;99.90;;;;;;5025479;28;20282;-80
2022/08/18 10:51:18;;;;;;;7.50;6.10;;;26.10;99.90;;;;;;5028062;28;20254;-80
2022/08/18 10:53:50;;;;;;;5.77;5.17;;;26.30;99.90;;;;;;5033806;28;20200;-80
2022/08/18 10:56:29;;;;;;;9.73;7.30;;;26.50;99.90;;;;;;5029055;28;20203;-82
2022/08/18 10:59:09;;;;;;;8.57;7.50;;;26.50;99.90;;;;;;5035683;28;20827;-79
2022/08/18 11:01:54;;;;;;;6.73;6.03;;;26.40;99.90;;;;;;5037086;28;20599;-78
2022/08/18 11:04:28;;;;;;;7.30;5.70;;;26.40;99.90;;;;;;5030858;28;20205;-79
2022/08/18 11:07:04;;;;;;;10.27;9.43;;;26.60;99.90;;;;;;5031809;28;20199;-78
2022/08/18 11:09:32;;;;;;;9.27;8.47;;;26.50;99.90;;;;;;5029058;28;20289;-78
2022/08/18 11:12:03;;;;;;;9.47;8.67;;;26.70;99.90;;;;;;5034437;28;20285;-79
2022/08/18 11:14:56;;;;;;;9.77;8.97;;;26.90;99.90;;;;;;5036482;28;20192;-79
2022/08/18 11:17:37;;;;;;;7.60;5.57;;;27.10;99.90;;;;;;5025900;28;20608;-79
2022/08/18 11:20:08;;;;;;;10.63;9.77;;;26.90;99.90;;;;;;5032918;28;20738;-78
2022/08/18 11:22:36;;;;;;;9.57;8.67;;;26.70;99.90;;;;;;5024802;28;20192;-78
2022/08/18 11:25:17;;;;;;;10.03;9.13;;;26.40;99.90;;;;;;5020884;28;20253;-78
2022/08/18 11:27:47;;;;;;;8.47;6.70;;;26.30;99.90;;;;;;5022955;28;20204;-78
2022/08/18 11:30:14;;;;;;;11.63;10.63;;;26.30;99.90;;;;;;5021877;28;20219;-78
2022/08/18 11:32:42;;;;;;;13.93;12.63;;;26.10;99.90;;;;;;5035076;28;20700;-80
2022/08/18 11:35:15;;;;;;;10.20;9.30;;;26.00;99.90;;;;;;5026818;28;20254;-80
2022/08/18 11:37:45;;;;;;;11.10;9.27;;;25.90;99.90;;;;;;5027923;28;20199;-78
2022/08/18 11:40:33;;;;;;;10.73;9.27;;;25.80;99.90;;;;;;5027601;28;20286;-78
2022/08/18 11:43:05;;;;;;;8.67;7.77;;;25.50;99.90;;;;;;5035586;28;20198;-79
2022/08/18 11:45:36;;;;;;;11.60;10.53;;;25.70;99.90;;;;;;5030956;28;20208;-80
2022/08/18 11:48:18;;;;;;;10.20;9.10;;;25.90;99.90;;;;;;5031444;28;20215;-79
2022/08/18 11:50:48;;;;;;;11.07;9.97;;;25.80;99.90;;;;;;5032280;28;20227;-79
2022/08/18 11:53:23;;;;;;;13.30;10.10;;;25.80;99.90;;;;;;5029158;28;20200;-80
2022/08/18 11:56:11;;;;;;;14.30;13.10;;;25.80;99.90;;;;;;5023984;28;20196;-80
2022/08/18 11:58:42;;;;;;;12.27;11.17;;;25.70;99.90;;;;;;5028641;28;20262;-80
2022/08/18 12:01:09;;;;;;;12.97;11.77;;;25.90;99.90;;;;;;5034632;28;20204;-79
2022/08/18 12:03:43;;;;;;;11.67;10.67;;;26.00;99.90;;;;;;5036763;28;20208;-80
2022/08/18 12:06:18;;;;;;;10.90;10.00;;;26.30;99.90;;;;;;5026895;28;20620;-79
2022/08/18 12:08:53;;;;;;;12.03;10.93;;;26.60;99.90;;;;;;5034575;28;20192;-79
2022/08/18 12:11:23;;;;;;;12.43;11.17;;;26.60;99.90;;;;;;5033054;28;20243;-80
2022/08/18 12:14:04;;;;;;;12.90;11.70;;;26.50;99.90;;;;;;5026865;28;20205;-79
2022/08/18 12:16:38;;;;;;;13.37;12.13;;;26.20;99.90;;;;;;5034815;28;20203;-79
2022/08/18 12:19:06;;;;;;;12.13;10.90;;;26.20;99.90;;;;;;5033314;28;20226;-79
2022/08/18 12:21:36;;;;;;;10.63;9.63;;;26.30;99.90;;;;;;5035330;28;20204;-79
2022/08/18 12:24:04;;;;;;;11.60;10.63;;;26.60;99.90;;;;;;5031269;28;20208;-80
2022/08/18 12:26:31;;;;;;;11.20;10.30;;;26.60;99.90;;;;;;5036112;28;20204;-80
2022/08/18 12:28:59;;;;;;;9.20;8.40;;;26.70;99.90;;;;;;5031916;28;20216;-80
2022/08/18 12:31:26;;;;;;;10.50;9.60;;;26.60;99.90;;;;;;5030660;28;20263;-79
2022/08/18 12:33:52;;;;;;;9.67;8.87;;;26.40;99.90;;;;;;5036598;28;20254;-80
2022/08/18 12:36:19;;;;;;;9.87;9.07;;;26.40;99.90;;;;;;5029245;28;20262;-79
2022/08/18 12:38:46;;;;;;;11.00;10.03;;;26.30;99.90;;;;;;5025646;28;20201;-80
2022/08/18 12:41:14;;;;;;;10.90;10.00;;;26.30;99.90;;;;;;5030963;28;20265;-80
2022/08/18 12:43:41;;;;;;;9.67;8.87;;;26.30;99.90;;;;;;5035517;28;20202;-79
2022/08/18 12:46:10;;;;;;;8.37;7.07;;;26.40;99.90;;;;;;5035224;28;20188;-79
2022/08/18 12:48:37;;;;;;;8.67;7.87;;;26.20;99.90;;;;;;5030575;28;20664;-78
2022/08/18 12:51:05;;;;;;;9.47;7.80;;;26.10;99.90;;;;;;5028389;28;20251;-79
2022/08/18 12:53:32;;;;;;;7.70;7.00;;;26.10;99.90;;;;;;5032957;28;20559;-79
2022/08/18 12:56:00;;;;;;;7.70;6.47;;;26.00;99.90;;;;;;5033535;28;20477;-80
2022/08/18 12:58:27;;;;;;;8.03;7.33;;;25.90;99.90;;;;;;5030039;28;20959;-80
2022/08/18 13:00:55;;;;;;;7.10;6.40;;;26.00;99.90;;;;;;5035225;28;20212;-79
2022/08/18 13:03:23;;;;;;;8.33;6.83;;;26.10;99.90;;;;;;5027756;28;20210;-79
2022/08/18 13:05:50;;;;;;;7.63;6.83;;;26.10;99.90;;;;;;5034016;28;20200;-79
2022/08/18 13:08:21;;;;;;;7.33;6.57;;;26.30;99.90;;;;;;5036618;28;20203;-79
2022/08/18 13:10:48;;;;;;;8.00;7.10;;;26.40;99.90;;;;;;5028743;28;20218;-80
2022/08/18 13:13:16;;;;;;;8.60;7.70;;;26.50;99.90;;;;;;5035110;28;20203;-79
2022/08/18 13:15:44;;;;;;;9.87;7.83;;;26.40;99.90;;;;;;5028217;28;20204;-79
2022/08/18 13:18:13;;;;;;;8.00;7.30;;;26.30;99.90;;;;;;5028830;28;20282;-79
2022/08/18 13:20:42;;;;;;;8.20;7.37;;;26.20;99.90;;;;;;5030452;28;20228;-79